OOCL Hamburg — VRZK9 — position and weather

sailwx.info

Track history (hours):
 
Tides and Currents Weather Stations Pressure Air Temp Water Temp Dewpoint Dewpoint Depression Visibility Wind Speed Wind Dir Waves Ship Positions

OOCL Hamburg

Last reported at 2015-Jul-05 00:14 UTC. Time now 2015-Jul-06 15:44 UTC.
Position N 30°01' E 032°35'.

Length 323 m; beam 42.8 m; draft 14.5 m.

Type: Cargo ship. MMSI: 477702000.

Date/timePositionNaut miles runAvg speedWind from/ knotsBaromVisibWave heightAir tempDewpointWater temp
2015-Jul-05 00:14N 30°01' E 032°35'1110.2
2015-Jul-04 23:09N 30°12' E 032°34'57 9.7
2015-Jul-04 17:16N 31°07' E 032°18'710.0
2015-Jul-04 16:32N 31°14' E 032°18'8 7.8
2015-Jul-04 15:33N 31°21' E 032°22'4 3.2
2015-Jul-04 14:23N 31°24' E 032°20'1 0.3
2015-Jul-04 12:31N 31°24' E 032°19'0 0.0
2015-Jul-03 17:10N 31°24' E 032°19'0 0.0
2015-Jul-03 16:33N 31°24' E 032°19'23 7.8
2015-Jul-03 13:34N 31°42' E 032°01'1313.0
2015-Jul-03 12:34N 31°48' E 031°48'5112.6
2015-Jul-03 08:29N 32°05' E 030°51'66313.5
2015-Jul-01 07:27N 35°23' E 018°10'1516.1
2015-Jul-01 06:33N 35°27' E 017°53'1717.3
2015-Jul-01 05:33N 35°33' E 017°33'1616.5
2015-Jul-01 04:33N 35°38' E 017°14'1716.4
2015-Jul-01 03:33N 35°43' E 016°54'1616.3
2015-Jul-01 02:33N 35°48' E 016°36'1716.5
2015-Jul-01 01:33N 35°53' E 016°16'1616.1
2015-Jul-01 00:33N 35°57' E 015°57'1615.9
2015-Jun-30 23:33N 36°02' E 015°38'1616.2
2015-Jun-30 22:33N 36°07' E 015°19'1716.8
2015-Jun-30 21:33N 36°12' E 014°59'1717.2
2015-Jun-30 20:34N 36°17' E 014°39'1717.0
2015-Jun-30 19:34N 36°22' E 014°19'1717.0
2015-Jun-30 18:33N 36°28' E 013°59'1716.7
2015-Jun-30 17:33N 36°33' E 013°39'1616.4
2015-Jun-30 16:34N 36°37' E 013°20'1616.3
2015-Jun-30 15:33N 36°43' E 013°00'1616.5
2015-Jun-30 14:34N 36°48' E 012°41'1716.7
2015-Jun-30 13:33N 36°53' E 012°21'1616.4
2015-Jun-30 12:34N 36°58' E 012°01'1616.4
2015-Jun-30 11:33N 37°06' E 011°43'1716.8
2015-Jun-30 10:34N 37°15' E 011°25'1717.0
2015-Jun-30 09:34N 37°24' E 011°07'1817.5
2015-Jun-30 08:33N 37°28' E 010°46'1817.6
2015-Jun-30 07:33N 37°32' E 010°24'1818.2
2015-Jun-30 06:34N 37°34' E 010°01'1717.4
2015-Jun-30 05:33N 37°37' E 009°40'1716.9
2015-Jun-30 04:33N 37°40' E 009°19'1817.0
2015-Jun-30 03:31N 37°43' E 008°57'1616.6
2015-Jun-30 02:34N 37°41' E 008°37'2116.4
2015-Jun-30 01:18N 37°38' E 008°11'14916.2
2015-Jun-29 16:07N 37°16' E 005°05'1017.0
2015-Jun-29 15:33N 37°14' E 004°53'1716.8
2015-Jun-29 14:33N 37°12' E 004°33'1616.3
2015-Jun-29 13:33N 37°09' E 004°12'1615.6
2015-Jun-29 12:34N 37°07' E 003°53'1615.7
2015-Jun-29 11:33N 37°05' E 003°33'1616.3
2015-Jun-29 10:33N 37°02' E 003°13'1716.7
2015-Jun-29 09:32N 36°59' E 002°52'1616.7
2015-Jun-29 08:34N 36°57' E 002°32'1716.8
2015-Jun-29 07:33N 36°54' E 002°11'1818.0
2015-Jun-29 06:32N 36°52' E 001°49'1616.5
2015-Jun-29 05:33N 36°49' E 001°28'1716.7
2015-Jun-29 04:33N 36°47' E 001°08'1716.8
2015-Jun-29 03:33N 36°44' E 000°47'1716.9
2015-Jun-29 02:33N 36°42' E 000°26'1716.8
2015-Jun-29 01:33N 36°39' E 000°06'1716.2
2015-Jun-29 00:32N 36°36' W 000°15'1616.3
2015-Jun-28 23:33N 36°34' W 000°34'1616.4
2015-Jun-28 22:34N 36°32' W 000°55'1616.4
2015-Jun-28 21:34N 36°29' W 001°15'1616.4
2015-Jun-28 20:34N 36°27' W 001°35'1616.3
2015-Jun-28 19:33N 36°24' W 001°55'1616.3
2015-Jun-28 18:33N 36°22' W 002°15'1716.6
2015-Jun-28 17:33N 36°19' W 002°35'1716.9
2015-Jun-28 16:34N 36°17' W 002°56'1716.9
2015-Jun-28 15:34N 36°14' W 003°17'9017.4
2015-Jun-28 10:23N 36°00' W 005°07'1518.5
2015-Jun-28 09:33N 35°58' W 005°25'1712.1
2015-Jun-28 08:11N 35°54' W 005°46'711.3
2015-Jun-28 07:34N 35°54' W 005°54'1512.9
2015-Jun-28 06:26N 35°53' W 006°12'12812.9
2015-Jun-27 20:33N 35°54' W 008°50'1313.0
2015-Jun-27 19:33N 35°54' W 009°06'1313.0
2015-Jun-27 18:33N 35°53' W 009°22'1313.1
2015-Jun-27 17:33N 35°53' W 009°38'1313.0
2015-Jun-27 16:33N 35°53' W 009°54'1313.1
2015-Jun-27 15:33N 35°55' W 010°10'1313.1
2015-Jun-27 14:33N 35°56' W 010°26'1313.1
2015-Jun-27 13:33N 35°58' W 010°42'1313.0
2015-Jun-27 12:33N 36°00' W 010°58'1313.0
2015-Jun-27 11:33N 36°02' W 011°14'1312.9
2015-Jun-27 10:33N 36°04' W 011°30'1313.2
2015-Jun-27 09:33N 36°06' W 011°46'1615.8
2015-Jun-27 08:33N 36°08' W 012°05'1514.7
2015-Jun-27 07:33N 36°10' W 012°23'1312.7
2015-Jun-27 06:33N 36°12' W 012°39'1312.5
2015-Jun-27 05:34N 36°14' W 012°54'1212.3
2015-Jun-27 04:33N 36°15' W 013°09'1212.1
2015-Jun-27 03:32N 36°17' W 013°25'1212.1
2015-Jun-27 02:33N 36°18' W 013°39'1211.8
2015-Jun-27 01:33N 36°20' W 013°54'1212.3
2015-Jun-27 00:33N 36°22' W 014°09'1312.6
2015-Jun-26 23:33N 36°24' W 014°24'1312.6
2015-Jun-26 22:33N 36°26' W 014°40'1312.8
2015-Jun-26 21:33N 36°28' W 014°56'1312.8
2015-Jun-26 20:33N 36°30' W 015°12'1313.0
2015-Jun-26 19:33N 36°31' W 015°27'1313.0
2015-Jun-26 18:33N 36°33' W 015°43'1413.4
2015-Jun-26 17:33N 36°35' W 016°00'1713.7
2015-Jun-26 16:18N 36°37' W 016°21'1013.6
2015-Jun-26 15:33N 36°39' W 016°34'2013.7
2015-Jun-26 14:04N 36°42' W 016°59'713.3
2015-Jun-26 13:33N 36°43' W 017°07'1913.5
2015-Jun-26 12:09N 36°45' W 017°31'913.5
2015-Jun-26 11:30N 36°47' W 017°42'1313.5
2015-Jun-26 10:33N 36°48' W 017°57'1919.6
2015-Jun-26 09:33N 36°51' W 018°21'11512.4
2015-Jun-26 00:18N 37°08' W 020°44'1212.4
2015-Jun-25 23:19N 37°09' W 020°59'1413.0
2015-Jun-25 22:13N 37°11' W 021°17'1413.7
2015-Jun-25 21:12N 37°13' W 021°34'913.8
2015-Jun-25 20:32N 37°15' W 021°45'1413.8
2015-Jun-25 19:31N 37°17' W 022°03'4214.0
2015-Jun-25 16:33N 37°22' W 022°55'1514.9
2015-Jun-25 15:34N 37°25' W 023°13'1616.4
2015-Jun-25 14:33N 37°27' W 023°33'1716.7
2015-Jun-25 13:34N 37°29' W 023°54'1616.4
2015-Jun-25 12:33N 37°31' W 024°15'1716.8
2015-Jun-25 11:33N 37°32' W 024°36'1716.9
2015-Jun-25 10:34N 37°33' W 024°57'1817.5
2015-Jun-25 09:33N 37°34' W 025°19'1818.0
2015-Jun-25 08:33N 37°36' W 025°42'1717.1
2015-Jun-25 07:34N 37°37' W 026°04'1717.0
2015-Jun-25 06:33N 37°38' W 026°25'1717.0
2015-Jun-25 05:33N 37°39' W 026°46'1716.5
2015-Jun-25 04:34N 37°40' W 027°07'1717.2
2015-Jun-25 03:33N 37°42' W 027°29'1716.8
2015-Jun-25 02:33N 37°43' W 027°50'1717.2
2015-Jun-25 01:34N 37°44' W 028°12'1717.4
2015-Jun-25 00:33N 37°45' W 028°34'  
Track history (hours):
 
Tides and Currents Weather Stations Pressure Air Temp Water Temp Dewpoint Dewpoint Depression Visibility Wind Speed Wind Dir Waves Ship Positions

OOCL Hamburg

Last reported at 2015-Jul-05 00:14 UTC. Time now 2015-Jul-06 15:44 UTC.
Position N 30°01' E 032°35'.

Length 323 m; beam 42.8 m; draft 14.5 m.

Type: Cargo ship. MMSI: 477702000.

Date/timePositionNaut miles runAvg speedWind from/ knotsBaromVisibWave heightAir tempDewpointWater temp
2015-Jul-05 00:14N 30°01' E 032°35'1110.2
2015-Jul-04 23:09N 30°12' E 032°34'57 9.7
2015-Jul-04 17:16N 31°07' E 032°18'710.0
2015-Jul-04 16:32N 31°14' E 032°18'8 7.8
2015-Jul-04 15:33N 31°21' E 032°22'4 3.2
2015-Jul-04 14:23N 31°24' E 032°20'1 0.3
2015-Jul-04 12:31N 31°24' E 032°19'0 0.0
2015-Jul-03 17:10N 31°24' E 032°19'0 0.0
2015-Jul-03 16:33N 31°24' E 032°19'23 7.8
2015-Jul-03 13:34N 31°42' E 032°01'1313.0
2015-Jul-03 12:34N 31°48' E 031°48'5112.6
2015-Jul-03 08:29N 32°05' E 030°51'66313.5
2015-Jul-01 07:27N 35°23' E 018°10'1516.1
2015-Jul-01 06:33N 35°27' E 017°53'1717.3
2015-Jul-01 05:33N 35°33' E 017°33'1616.5
2015-Jul-01 04:33N 35°38' E 017°14'1716.4
2015-Jul-01 03:33N 35°43' E 016°54'1616.3
2015-Jul-01 02:33N 35°48' E 016°36'1716.5
2015-Jul-01 01:33N 35°53' E 016°16'1616.1
2015-Jul-01 00:33N 35°57' E 015°57'1615.9
2015-Jun-30 23:33N 36°02' E 015°38'1616.2
2015-Jun-30 22:33N 36°07' E 015°19'1716.8
2015-Jun-30 21:33N 36°12' E 014°59'1717.2
2015-Jun-30 20:34N 36°17' E 014°39'1717.0
2015-Jun-30 19:34N 36°22' E 014°19'1717.0
2015-Jun-30 18:33N 36°28' E 013°59'1716.7
2015-Jun-30 17:33N 36°33' E 013°39'1616.4
2015-Jun-30 16:34N 36°37' E 013°20'1616.3
2015-Jun-30 15:33N 36°43' E 013°00'1616.5
2015-Jun-30 14:34N 36°48' E 012°41'1716.7
2015-Jun-30 13:33N 36°53' E 012°21'1616.4
2015-Jun-30 12:34N 36°58' E 012°01'1616.4
2015-Jun-30 11:33N 37°06' E 011°43'1716.8
2015-Jun-30 10:34N 37°15' E 011°25'1717.0
2015-Jun-30 09:34N 37°24' E 011°07'1817.5
2015-Jun-30 08:33N 37°28' E 010°46'1817.6
2015-Jun-30 07:33N 37°32' E 010°24'1818.2
2015-Jun-30 06:34N 37°34' E 010°01'1717.4
2015-Jun-30 05:33N 37°37' E 009°40'1716.9
2015-Jun-30 04:33N 37°40' E 009°19'1817.0
2015-Jun-30 03:31N 37°43' E 008°57'1616.6
2015-Jun-30 02:34N 37°41' E 008°37'2116.4
2015-Jun-30 01:18N 37°38' E 008°11'14916.2
2015-Jun-29 16:07N 37°16' E 005°05'1017.0
2015-Jun-29 15:33N 37°14' E 004°53'1716.8
2015-Jun-29 14:33N 37°12' E 004°33'1616.3
2015-Jun-29 13:33N 37°09' E 004°12'1615.6
2015-Jun-29 12:34N 37°07' E 003°53'1615.7
2015-Jun-29 11:33N 37°05' E 003°33'1616.3
2015-Jun-29 10:33N 37°02' E 003°13'1716.7
2015-Jun-29 09:32N 36°59' E 002°52'1616.7
2015-Jun-29 08:34N 36°57' E 002°32'1716.8
2015-Jun-29 07:33N 36°54' E 002°11'1818.0
2015-Jun-29 06:32N 36°52' E 001°49'1616.5
2015-Jun-29 05:33N 36°49' E 001°28'1716.7
2015-Jun-29 04:33N 36°47' E 001°08'1716.8
2015-Jun-29 03:33N 36°44' E 000°47'1716.9
2015-Jun-29 02:33N 36°42' E 000°26'1716.8
2015-Jun-29 01:33N 36°39' E 000°06'1716.2
2015-Jun-29 00:32N 36°36' W 000°15'1616.3
2015-Jun-28 23:33N 36°34' W 000°34'1616.4
2015-Jun-28 22:34N 36°32' W 000°55'1616.4
2015-Jun-28 21:34N 36°29' W 001°15'1616.4
2015-Jun-28 20:34N 36°27' W 001°35'1616.3
2015-Jun-28 19:33N 36°24' W 001°55'1616.3
2015-Jun-28 18:33N 36°22' W 002°15'1716.6
2015-Jun-28 17:33N 36°19' W 002°35'1716.9
2015-Jun-28 16:34N 36°17' W 002°56'1716.9
2015-Jun-28 15:34N 36°14' W 003°17'9017.4
2015-Jun-28 10:23N 36°00' W 005°07'1518.5
2015-Jun-28 09:33N 35°58' W 005°25'1712.1
2015-Jun-28 08:11N 35°54' W 005°46'711.3
2015-Jun-28 07:34N 35°54' W 005°54'1512.9
2015-Jun-28 06:26N 35°53' W 006°12'12812.9
2015-Jun-27 20:33N 35°54' W 008°50'1313.0
2015-Jun-27 19:33N 35°54' W 009°06'1313.0
2015-Jun-27 18:33N 35°53' W 009°22'1313.1
2015-Jun-27 17:33N 35°53' W 009°38'1313.0
2015-Jun-27 16:33N 35°53' W 009°54'1313.1
2015-Jun-27 15:33N 35°55' W 010°10'1313.1
2015-Jun-27 14:33N 35°56' W 010°26'1313.1
2015-Jun-27 13:33N 35°58' W 010°42'1313.0
2015-Jun-27 12:33N 36°00' W 010°58'1313.0
2015-Jun-27 11:33N 36°02' W 011°14'1312.9
2015-Jun-27 10:33N 36°04' W 011°30'1313.2
2015-Jun-27 09:33N 36°06' W 011°46'1615.8
2015-Jun-27 08:33N 36°08' W 012°05'1514.7
2015-Jun-27 07:33N 36°10' W 012°23'1312.7
2015-Jun-27 06:33N 36°12' W 012°39'1312.5
2015-Jun-27 05:34N 36°14' W 012°54'1212.3
2015-Jun-27 04:33N 36°15' W 013°09'1212.1
2015-Jun-27 03:32N 36°17' W 013°25'1212.1
2015-Jun-27 02:33N 36°18' W 013°39'1211.8
2015-Jun-27 01:33N 36°20' W 013°54'1212.3
2015-Jun-27 00:33N 36°22' W 014°09'1312.6
2015-Jun-26 23:33N 36°24' W 014°24'1312.6
2015-Jun-26 22:33N 36°26' W 014°40'1312.8
2015-Jun-26 21:33N 36°28' W 014°56'1312.8
2015-Jun-26 20:33N 36°30' W 015°12'1313.0
2015-Jun-26 19:33N 36°31' W 015°27'1313.0
2015-Jun-26 18:33N 36°33' W 015°43'1413.4
2015-Jun-26 17:33N 36°35' W 016°00'1713.7
2015-Jun-26 16:18N 36°37' W 016°21'1013.6
2015-Jun-26 15:33N 36°39' W 016°34'2013.7
2015-Jun-26 14:04N 36°42' W 016°59'713.3
2015-Jun-26 13:33N 36°43' W 017°07'1913.5
2015-Jun-26 12:09N 36°45' W 017°31'913.5
2015-Jun-26 11:30N 36°47' W 017°42'1313.5
2015-Jun-26 10:33N 36°48' W 017°57'1919.6
2015-Jun-26 09:33N 36°51' W 018°21'11512.4
2015-Jun-26 00:18N 37°08' W 020°44'1212.4
2015-Jun-25 23:19N 37°09' W 020°59'1413.0
2015-Jun-25 22:13N 37°11' W 021°17'1413.7
2015-Jun-25 21:12N 37°13' W 021°34'913.8
2015-Jun-25 20:32N 37°15' W 021°45'1413.8
2015-Jun-25 19:31N 37°17' W 022°03'4214.0
2015-Jun-25 16:33N 37°22' W 022°55'1514.9
2015-Jun-25 15:34N 37°25' W 023°13'1616.4
2015-Jun-25 14:33N 37°27' W 023°33'1716.7
2015-Jun-25 13:34N 37°29' W 023°54'1616.4
2015-Jun-25 12:33N 37°31' W 024°15'1716.8
2015-Jun-25 11:33N 37°32' W 024°36'1716.9
2015-Jun-25 10:34N 37°33' W 024°57'1817.5
2015-Jun-25 09:33N 37°34' W 025°19'1818.0
2015-Jun-25 08:33N 37°36' W 025°42'1717.1
2015-Jun-25 07:34N 37°37' W 026°04'1717.0
2015-Jun-25 06:33N 37°38' W 026°25'1717.0
2015-Jun-25 05:33N 37°39' W 026°46'1716.5
2015-Jun-25 04:34N 37°40' W 027°07'1717.2
2015-Jun-25 03:33N 37°42' W 027°29'1716.8
2015-Jun-25 02:33N 37°43' W 027°50'1717.2
2015-Jun-25 01:34N 37°44' W 028°12'1717.4
2015-Jun-25 00:33N 37°45' W 028°34'  

Dump ship's entire track history